Mesa, AZ

2:41 PM MST on August 30, 2015 (GMT -0700)
Falcon Field | | Change Station
CLOSE
Current Station
Airport
Location: Mesa,
Elevation: 1391 ft
Nearby Weather Stations

Elev 1391 ft 33.46 °N, 111.73 °W | Updated 54 minutes ago

Scattered Clouds
Scattered Clouds
104 °F
Feels Like 102 °F
N
6
Wind Variable Wind from WSW

Today
High -- | Low -- °F
--% Chance of Precip.
Yesterday
High -- | Low -- °F
Precip. -- in
5:59 AM 6:55 PM
Full, 98% visible
Pressure 29.83 in
Visibility 40.0 miles
Clouds Few 12000 ft
Scattered Clouds 18000 ft
Heat Index 102 °F
Dew Point 54 °F
Humidity 19%
Rainfall 0.00 in
Snow Depth Not available.
UV 8 out of 12
Pollen 5.10 out of 12
Air Quality Not available.
Flu Activity Not available.
METAR KFFZ 302047Z 25005KT 40SM FEW120 SCT180 40/12 A2983
Pressure 29.83 in
Visibility 40.0 miles
Clouds Few 12000 ft
Scattered Clouds 18000 ft
Heat Index 102 °F
Dew Point 54 °F
Humidity 19%
Rainfall 0.00 in
Snow Depth Not available.
UV 8 out of 12
Pollen 5.10 out of 12
Air Quality Not available.
Flu Activity Not available.
METAR KFFZ 302047Z 25005KT 40SM FEW120 SCT180 40/12 A2983

10-Day Weather Forecast

×

Almanac

Astronomy

Aug. 30, 2015 Rise Set
Actual Time
Civil Twilight
Nautical Twilight
Astronomical Twilight
Moon
Length of Visible Light
Length of Day
Tomorrow will be .
, % of the Moon is Illuminated

Today's Extremes

State Highs State Lows

Community

WunderPhotos

Upload Photos

1,851,063 photos uploaded!

WunderBlogs® & News

Nearby

Air Quality

  Air Quality AQ Index Pollutant
Not available.

Snow Depth

Station Depth Elevation

Earthquake Activity

City Distance Mag. Time & Date
Minimum magnitude displayed is 2.5.

Coastal Water Temperatures

Place Temperature

Stations

Nearby Weather Stations

Station Location Temp. Windchill Dew Point Humidity Wind Precip. Elev Updated Type